Time;durP1;ratioP1;P1;durP2;ratioP2;P2;SDS_P1;SDS_P2;PMS_P1;PMS_P2;Temp;Humidity;BMP_temperature;BMP_pressure;BME280_temperature;BME280_humidity;BME280_pressure;Samples;Min_cycle;Max_cycle;Signal;HPM_P1;HPM_P2
2023/12/06 00:02:17;;;;;;;;;;;-3.10;99.90;;;;;;2585665;54;20815;31
2023/12/06 00:04:53;;;;;;;;;;;-3.20;99.90;;;;;;2585788;54;20832;31
2023/12/06 00:07:24;;;;;;;;;;;0.10;99.90;;;;;;2604530;46;19941;31
2023/12/06 00:09:58;;;;;;;;;;;-3.10;99.90;;;;;;2585728;54;20811;31
2023/12/06 00:12:31;;;;;;;;;;;-3.20;99.90;;;;;;2585752;54;19958;31
2023/12/06 00:15:05;;;;;;;;;;;-0.80;99.90;;;;;;2585662;54;19943;31
2023/12/06 00:17:39;;;;;;;;;;;-3.20;99.90;;;;;;2585811;54;19960;31
2023/12/06 00:20:14;;;;;;;;;;;-6.20;99.90;;;;;;2585763;54;20013;31
2023/12/06 00:22:47;;;;;;;;;;;-2.90;99.90;;;;;;2585819;54;20656;31
2023/12/06 00:25:20;;;;;;;;;;;-3.10;99.90;;;;;;2604305;46;20804;31
2023/12/06 00:27:53;;;;;;;;;;;-0.20;99.90;;;;;;2585910;54;20749;31
2023/12/06 00:30:26;;;;;;;;;;;-2.90;99.90;;;;;;2585794;54;20722;31
2023/12/06 00:32:58;;;;;;;;;;;-3.20;99.90;;;;;;2755095;31;21041;31
2023/12/06 00:35:33;;;;;;;;;;;-3.30;99.90;;;;;;2585338;54;19935;31
2023/12/06 00:38:06;;;;;;;;;;;-1.30;99.90;;;;;;2585597;54;19934;31
2023/12/06 00:40:40;;;;;;;;;;;-1.20;99.90;;;;;;2603645;46;20874;31
2023/12/06 00:43:12;;;;;;;;;;;-3.30;99.90;;;;;;2585870;54;21775;31
2023/12/06 00:45:45;;;;;;;;;;;-3.40;99.90;;;;;;2585433;54;20073;31
2023/12/06 00:48:18;;;;;;;;;;;-2.30;99.90;;;;;;2604136;46;20802;31
2023/12/06 00:50:52;;;;;;;;;;;-3.30;99.90;;;;;;2604157;46;20005;31
2023/12/06 00:53:25;;;;;;;;;;;-1.10;99.90;;;;;;2689070;39;21312;31
2023/12/06 00:55:59;;;;;;;;;;;-3.30;99.90;;;;;;2585666;54;20812;31
2023/12/06 00:58:35;;;;;;;;;;;-3.60;99.90;;;;;;2604025;46;20711;31
2023/12/06 01:01:08;;;;;;;;;;;-3.40;99.90;;;;;;2585835;54;20810;31
2023/12/06 01:03:41;;;;;;;;;;;-3.40;99.90;;;;;;2585528;54;20711;31
2023/12/06 01:06:16;;;;;;;;;;;-3.40;99.90;;;;;;2585743;54;20848;31
2023/12/06 01:08:49;;;;;;;;;;;-3.40;99.90;;;;;;2585834;54;19934;31
2023/12/06 01:11:22;;;;;;;;;;;-3.40;99.90;;;;;;2585678;54;19935;31
2023/12/06 01:13:55;;;;;;;;;;;-3.50;99.90;;;;;;2585845;54;19954;31
2023/12/06 01:16:29;;;;;;;;;;;-3.60;99.90;;;;;;2585531;54;20778;31
2023/12/06 01:19:02;;;;;;;;;;;-2.00;99.90;;;;;;2585093;54;20744;31
2023/12/06 01:21:38;;;;;;;;;;;-3.60;99.90;;;;;;2585391;54;20948;31
2023/12/06 01:24:10;;;;;;;;;;;-3.80;99.90;;;;;;2585173;54;20009;31
2023/12/06 01:26:44;;;;;;;;;;;-3.70;99.90;;;;;;2585691;54;19993;31
2023/12/06 01:29:18;;;;;;;;;;;-6.70;99.90;;;;;;2603853;46;19961;31
2023/12/06 01:31:52;;;;;;;;;;;-6.60;99.90;;;;;;2585565;54;20813;31
2023/12/06 01:34:24;;;;;;;;;;;-3.70;99.90;;;;;;2585660;54;19940;31
2023/12/06 01:37:01;;;;;;;;;;;-3.60;99.90;;;;;;2585679;54;19941;31
2023/12/06 01:39:35;;;;;;;;;;;-5.60;99.90;;;;;;2585280;54;19934;31
2023/12/06 01:42:07;;;;;;;;;;;-3.60;99.90;;;;;;2585194;54;20835;31
2023/12/06 01:44:41;;;;;;;;;;;-3.60;99.90;;;;;;2590055;46;19992;31
2023/12/06 01:47:15;;;;;;;;;;;-3.30;99.90;;;;;;2585292;54;19941;31
2023/12/06 01:49:49;;;;;;;;;;;-3.50;99.90;;;;;;2585330;54;19935;31
2023/12/06 01:52:24;;;;;;;;;;;-6.40;99.90;;;;;;2585160;54;20844;31
2023/12/06 01:54:58;;;;;;;;;;;-2.00;99.90;;;;;;2594431;46;19965;31
2023/12/06 01:57:30;;;;;;;;;;;-6.30;99.90;;;;;;2683518;39;20939;31
2023/12/06 02:00:04;;;;;;;;;;;-3.70;99.90;;;;;;2585518;54;21055;31
2023/12/06 02:02:42;;;;;;;;;;;-3.70;99.90;;;;;;2585483;54;20727;31
2023/12/06 02:05:14;;;;;;;;;;;-3.60;99.90;;;;;;2585643;54;20439;31
2023/12/06 02:07:49;;;;;;;;;;;-3.60;99.90;;;;;;2585509;54;19974;31
2023/12/06 02:10:22;;;;;;;;;;;-5.70;99.90;;;;;;2604201;46;21763;31
2023/12/06 02:12:54;;;;;;;;;;;-3.60;99.90;;;;;;2586974;47;21089;31
2023/12/06 02:15:28;;;;;;;;;;;-3.70;99.90;;;;;;2585303;54;19934;31
2023/12/06 02:18:02;;;;;;;;;;;-3.30;99.90;;;;;;2585545;54;20790;31
2023/12/06 02:20:35;;;;;;;;;;;-2.40;99.90;;;;;;2584859;54;20829;31
2023/12/06 02:23:11;;;;;;;;;;;-3.50;99.90;;;;;;2585457;54;19945;31
2023/12/06 02:25:46;;;;;;;;;;;-3.70;99.90;;;;;;2683499;39;21118;31
2023/12/06 02:28:19;;;;;;;;;;;-3.50;99.90;;;;;;2585292;54;19946;31
2023/12/06 02:30:53;;;;;;;;;;;-3.50;99.90;;;;;;2585046;54;19962;31
2023/12/06 02:33:25;;;;;;;;;;;-3.30;99.90;;;;;;2586083;47;19966;31
2023/12/06 02:35:59;;;;;;;;;;;-3.70;99.90;;;;;;2586405;54;20820;31
2023/12/06 02:38:33;;;;;;;;;;;-0.40;99.90;;;;;;2604946;46;21761;31
2023/12/06 02:41:10;;;;;;;;;;;-3.40;99.90;;;;;;2586148;54;19934;31
2023/12/06 02:43:44;;;;;;;;;;;-3.50;99.90;;;;;;2604479;46;20850;31
2023/12/06 02:46:17;;;;;;;;;;;-3.60;99.90;;;;;;2586159;54;20821;31
2023/12/06 02:48:49;;;;;;;;;;;-2.20;99.90;;;;;;2586176;54;20814;31
2023/12/06 02:51:23;;;;;;;;;;;-2.50;99.90;;;;;;2604260;46;20738;31
2023/12/06 02:53:57;;;;;;;;;;;-3.50;99.90;;;;;;2585876;54;20726;31
2023/12/06 02:56:31;;;;;;;;;;;-3.50;99.90;;;;;;2586110;54;20884;31
2023/12/06 02:59:04;;;;;;;;;;;-3.60;99.90;;;;;;2604814;46;19941;31
2023/12/06 03:01:36;;;;;;;;;;;-3.20;99.90;;;;;;2684358;39;20923;31
2023/12/06 03:04:10;;;;;;;;;;;-3.20;99.90;;;;;;2595627;46;20800;31
2023/12/06 03:06:42;;;;;;;;;;;-3.60;99.90;;;;;;2585762;54;20025;31
2023/12/06 03:09:14;;;;;;;;;;;-6.40;99.90;;;;;;2586222;54;19941;31
2023/12/06 03:11:48;;;;;;;;;;;-3.50;99.90;;;;;;2586003;54;20667;31
2023/12/06 03:14:21;;;;;;;;;;;-3.50;99.90;;;;;;2586168;54;20787;31
2023/12/06 03:16:53;;;;;;;;;;;-3.50;99.90;;;;;;2591487;46;20756;31
2023/12/06 03:19:27;;;;;;;;;;;-3.50;99.90;;;;;;2604554;46;20809;31
2023/12/06 03:21:59;;;;;;;;;;;-1.70;99.90;;;;;;2604662;46;21816;31
2023/12/06 03:24:30;;;;;;;;;;;-3.50;99.90;;;;;;2585895;54;19941;31
2023/12/06 03:27:06;;;;;;;;;;;-3.40;99.90;;;;;;2585886;54;20854;31
2023/12/06 03:29:38;;;;;;;;;;;-2.60;99.90;;;;;;2586392;54;21066;31
2023/12/06 03:32:10;;;;;;;;;;;-3.40;99.90;;;;;;2600147;46;20810;31
2023/12/06 03:34:44;;;;;;;;;;;-3.50;99.90;;;;;;2586167;46;19934;31
2023/12/06 03:37:18;;;;;;;;;;;-2.50;99.90;;;;;;2604554;46;20724;31
2023/12/06 03:39:51;;;;;;;;;;;-3.30;99.90;;;;;;2586170;54;19934;31
2023/12/06 03:42:27;;;;;;;;;;;-3.40;99.90;;;;;;2585786;54;20723;31
2023/12/06 03:45:00;;;;;;;;;;;-3.30;99.90;;;;;;2586085;54;20787;31
2023/12/06 03:47:34;;;;;;;;;;;-2.60;99.90;;;;;;2585821;54;20721;31
2023/12/06 03:50:07;;;;;;;;;;;-3.30;99.90;;;;;;2585816;54;19961;31
2023/12/06 03:52:39;;;;;;;;;;;-1.00;99.90;;;;;;2585750;54;20795;31
2023/12/06 03:55:13;;;;;;;;;;;-3.20;99.90;;;;;;2604111;46;19985;31
2023/12/06 03:57:50;;;;;;;;;;;-3.50;99.90;;;;;;2595298;46;20025;31
2023/12/06 04:00:24;;;;;;;;;;;-6.30;99.90;;;;;;2603803;46;20784;31
2023/12/06 04:02:56;;;;;;;;;;;-3.20;99.90;;;;;;2585671;54;20712;31
2023/12/06 04:05:28;;;;;;;;;;;-3.20;99.90;;;;;;2604302;46;19938;31
2023/12/06 04:08:00;;;;;;;;;;;0.10;99.90;;;;;;2585795;54;19980;31
2023/12/06 04:10:33;;;;;;;;;;;-2.90;99.90;;;;;;2684125;39;20917;31
2023/12/06 04:13:07;;;;;;;;;;;-3.20;99.90;;;;;;2585974;54;19957;31
2023/12/06 04:15:40;;;;;;;;;;;-1.30;99.90;;;;;;2585775;54;20725;31
2023/12/06 04:18:13;;;;;;;;;;;-3.10;99.90;;;;;;2604529;46;21809;31
2023/12/06 04:20:46;;;;;;;;;;;-3.10;99.90;;;;;;2604151;46;20815;31
2023/12/06 04:23:20;;;;;;;;;;;-3.20;99.90;;;;;;2585827;54;19934;31
2023/12/06 04:25:52;;;;;;;;;;;-3.00;99.90;;;;;;2585794;54;20936;31
2023/12/06 04:28:28;;;;;;;;;;;-1.70;99.90;;;;;;2585916;54;19997;31
2023/12/06 04:31:01;;;;;;;;;;;-3.10;99.90;;;;;;2585955;54;20016;31
2023/12/06 04:33:34;;;;;;;;;;;-5.60;99.90;;;;;;2585675;54;19935;31
2023/12/06 04:36:07;;;;;;;;;;;-3.70;99.90;;;;;;2585755;54;19935;31
2023/12/06 04:38:40;;;;;;;;;;;-2.90;99.90;;;;;;2684088;39;22236;31
2023/12/06 04:41:13;;;;;;;;;;;-2.60;99.90;;;;;;2585237;54;19957;31
2023/12/06 04:43:45;;;;;;;;;;;-3.70;99.90;;;;;;2585763;54;19961;31
2023/12/06 04:46:21;;;;;;;;;;;0.30;99.90;;;;;;2585899;54;19935;31
2023/12/06 04:48:56;;;;;;;;;;;-2.90;99.90;;;;;;2585520;54;20726;31
2023/12/06 04:51:29;;;;;;;;;;;-2.80;99.90;;;;;;2585580;54;20933;31
2023/12/06 04:54:01;;;;;;;;;;;-2.90;99.90;;;;;;2586990;46;20805;31
2023/12/06 04:56:33;;;;;;;;;;;-2.90;99.90;;;;;;2683754;39;21070;31
2023/12/06 04:59:05;;;;;;;;;;;-2.80;99.90;;;;;;2603610;47;20720;31
2023/12/06 05:01:41;;;;;;;;;;;-2.80;99.90;;;;;;2585517;54;20802;31
2023/12/06 05:04:15;;;;;;;;;;;-2.80;99.90;;;;;;2585362;54;20744;31
2023/12/06 05:06:49;;;;;;;;;;;-2.70;99.90;;;;;;2591780;46;20820;31
2023/12/06 05:09:22;;;;;;;;;;;-2.70;99.90;;;;;;2758802;31;20991;31
2023/12/06 05:11:55;;;;;;;;;;;-2.80;99.90;;;;;;2585856;54;21090;31
2023/12/06 05:14:28;;;;;;;;;;;-2.80;99.90;;;;;;2585644;54;19935;31
2023/12/06 05:17:04;;;;;;;;;;;-2.70;99.90;;;;;;2585758;54;20719;31
2023/12/06 05:19:37;;;;;;;;;;;-2.70;99.90;;;;;;2595810;46;21374;31
2023/12/06 05:22:10;;;;;;;;;;;-2.90;99.90;;;;;;2585659;54;19935;31
2023/12/06 05:24:42;;;;;;;;;;;-5.80;99.90;;;;;;2585510;54;20722;31
2023/12/06 05:27:15;;;;;;;;;;;-2.70;99.90;;;;;;2585486;54;19934;31
2023/12/06 05:29:49;;;;;;;;;;;-5.20;99.90;;;;;;2585657;54;20016;31
2023/12/06 05:32:26;;;;;;;;;;;-2.70;99.90;;;;;;2585755;54;19934;31
2023/12/06 05:35:00;;;;;;;;;;;-5.50;99.90;;;;;;2602759;46;20865;31
2023/12/06 05:37:32;;;;;;;;;;;-2.00;99.90;;;;;;2585998;54;21065;31
2023/12/06 05:40:06;;;;;;;;;;;-2.80;99.90;;;;;;2585163;54;20762;31
2023/12/06 05:42:39;;;;;;;;;;;-2.70;99.90;;;;;;2603994;46;20726;31
2023/12/06 05:45:13;;;;;;;;;;;-2.70;99.90;;;;;;2585147;54;20800;31
2023/12/06 05:47:49;;;;;;;;;;;-2.60;99.90;;;;;;2603958;46;20686;31
2023/12/06 05:50:22;;;;;;;;;;;-2.60;99.90;;;;;;2604071;46;20817;31
2023/12/06 05:52:56;;;;;;;;;;;-0.10;99.90;;;;;;2585550;54;20833;31
2023/12/06 05:55:28;;;;;;;;;;;-2.00;99.90;;;;;;2585708;54;19946;31
2023/12/06 05:58:02;;;;;;;;;;;-2.70;99.90;;;;;;2585403;54;20774;31
2023/12/06 06:00:35;;;;;;;;;;;-2.70;99.90;;;;;;2585284;54;19969;31
2023/12/06 06:03:09;;;;;;;;;;;0.10;99.90;;;;;;2588925;39;21006;31
2023/12/06 06:05:42;;;;;;;;;;;-2.70;99.90;;;;;;2585569;54;20779;31
2023/12/06 06:08:16;;;;;;;;;;;-2.70;99.90;;;;;;2594078;46;20861;31
2023/12/06 06:10:53;;;;;;;;;;;0.30;99.90;;;;;;2585420;54;20792;31
2023/12/06 06:13:29;;;;;;;;;;;-2.00;99.90;;;;;;2585455;54;19938;31
2023/12/06 06:16:01;;;;;;;;;;;-2.40;99.90;;;;;;2585738;54;20992;31
2023/12/06 06:18:37;;;;;;;;;;;-2.80;99.90;;;;;;2604052;47;20369;31
2023/12/06 06:21:11;;;;;;;;;;;-5.40;99.90;;;;;;2603813;47;19934;31
2023/12/06 06:23:45;;;;;;;;;;;0.60;99.90;;;;;;2603386;47;19954;31
2023/12/06 06:26:20;;;;;;;;;;;-2.70;99.90;;;;;;2585364;54;19950;31
2023/12/06 06:28:54;;;;;;;;;;;-2.70;99.90;;;;;;2585414;54;20830;31
2023/12/06 06:31:27;;;;;;;;;;;0.30;99.90;;;;;;2585188;47;19934;31
2023/12/06 06:34:03;;;;;;;;;;;-2.50;99.90;;;;;;2603709;47;20820;31
2023/12/06 06:36:38;;;;;;;;;;;-2.70;99.90;;;;;;2585273;54;20844;31
2023/12/06 06:39:11;;;;;;;;;;;-2.90;99.90;;;;;;2584955;54;20084;31
2023/12/06 06:41:43;;;;;;;;;;;-2.70;99.90;;;;;;2603968;47;19986;31
2023/12/06 06:44:16;;;;;;;;;;;-3.00;99.90;;;;;;2585240;54;20826;31
2023/12/06 06:46:48;;;;;;;;;;;-2.80;99.90;;;;;;2585347;54;19941;31
2023/12/06 06:49:24;;;;;;;;;;;-5.50;99.90;;;;;;2584874;54;20794;31
2023/12/06 06:51:57;;;;;;;;;;;-2.90;99.90;;;;;;2585323;54;20823;31
2023/12/06 06:54:29;;;;;;;;;;;-2.70;99.90;;;;;;2585199;54;19961;31
2023/12/06 06:57:03;;;;;;;;;;;-3.00;99.90;;;;;;2585427;54;19935;31
2023/12/06 06:59:36;;;;;;;;;;;-2.50;99.90;;;;;;2585367;54;19941;31
2023/12/06 07:02:08;;;;;;;;;;;-2.70;99.90;;;;;;2603824;47;19988;31
2023/12/06 07:04:45;;;;;;;;;;;-2.50;99.90;;;;;;2585080;54;19946;31
2023/12/06 07:07:17;;;;;;;;;;;-2.70;99.90;;;;;;2585182;54;20016;31
2023/12/06 07:09:49;;;;;;;;;;;-2.40;99.90;;;;;;2585087;54;20690;31
2023/12/06 07:12:22;;;;;;;;;;;-2.70;99.90;;;;;;2585042;54;19961;31
2023/12/06 07:14:55;;;;;;;;;;;-2.30;99.90;;;;;;2585120;54;20810;31
2023/12/06 07:17:29;;;;;;;;;;;-2.70;99.90;;;;;;2603781;47;21751;31
2023/12/06 07:20:04;;;;;;;;;;;-2.60;99.90;;;;;;2584904;54;19980;31
2023/12/06 07:22:37;;;;;;;;;;;-2.80;99.90;;;;;;2585954;54;19941;31
2023/12/06 07:25:09;;;;;;;;;;;-2.60;99.90;;;;;;2585809;54;20801;31
2023/12/06 07:27:44;;;;;;;;;;;0.30;99.90;;;;;;2585996;54;19996;31
2023/12/06 07:30:18;;;;;;;;;;;-1.60;99.90;;;;;;2586092;54;20825;31
2023/12/06 07:32:52;;;;;;;;;;;-2.50;99.90;;;;;;2604602;46;20733;31
2023/12/06 07:35:30;;;;;;;;;;;-2.50;99.90;;;;;;2585746;54;20813;31
2023/12/06 07:38:05;;;;;;;;;;;-2.60;99.90;;;;;;2604574;46;19935;31
2023/12/06 07:40:38;;;;;;;;;;;-5.10;99.90;;;;;;2604445;46;20874;31
2023/12/06 07:43:12;;;;;;;;;;;-2.60;99.90;;;;;;2585638;54;20867;31
2023/12/06 07:45:46;;;;;;;;;;;-2.50;99.90;;;;;;2702632;39;22341;31
2023/12/06 07:48:20;;;;;;;;;;;-2.10;99.90;;;;;;2585565;54;20757;31
2023/12/06 07:50:57;;;;;;;;;;;-2.40;99.90;;;;;;2585879;54;19941;31
2023/12/06 07:53:30;;;;;;;;;;;-2.40;99.90;;;;;;2585994;54;20828;31
2023/12/06 07:56:04;;;;;;;;;;;-2.50;99.90;;;;;;2585508;54;19941;31
2023/12/06 07:58:38;;;;;;;;;;;-5.00;99.90;;;;;;2604516;46;20815;31
2023/12/06 08:01:13;;;;;;;;;;;-2.40;99.90;;;;;;2586041;54;20815;31
2023/12/06 08:03:48;;;;;;;;;;;0.90;99.90;;;;;;2585862;54;20866;31
2023/12/06 08:06:23;;;;;;;;;;;-2.40;99.90;;;;;;2585824;54;20015;31
2023/12/06 08:08:56;;;;;;;;;;;-2.10;99.90;;;;;;2586068;54;20015;31
2023/12/06 08:11:29;;;;;;;;;;;-2.30;99.90;;;;;;2585750;54;20696;31
2023/12/06 08:14:02;;;;;;;;;;;-2.20;99.90;;;;;;2585389;54;19946;31
2023/12/06 08:16:36;;;;;;;;;;;-0.90;99.90;;;;;;2586102;54;20053;31
2023/12/06 08:19:08;;;;;;;;;;;-1.90;99.90;;;;;;2684201;39;20861;31
2023/12/06 08:21:44;;;;;;;;;;;-2.10;99.90;;;;;;2585694;54;19956;31
2023/12/06 08:24:16;;;;;;;;;;;-2.10;99.90;;;;;;2585813;54;21098;31
2023/12/06 08:26:49;;;;;;;;;;;-2.10;99.90;;;;;;2585826;54;19935;31
2023/12/06 08:29:24;;;;;;;;;;;-2.00;99.90;;;;;;2585666;54;19957;31
2023/12/06 08:31:56;;;;;;;;;;;-2.10;99.90;;;;;;2586029;54;21008;31
2023/12/06 08:34:30;;;;;;;;;;;-2.30;99.90;;;;;;2585280;54;20911;31
2023/12/06 08:37:06;;;;;;;;;;;-2.00;99.90;;;;;;2604160;46;19946;31
2023/12/06 08:39:39;;;;;;;;;;;-0.80;99.90;;;;;;2585781;54;19961;31
2023/12/06 08:42:14;;;;;;;;;;;-0.10;99.90;;;;;;2585146;54;20846;31
2023/12/06 08:44:47;;;;;;;;;;;-1.90;99.90;;;;;;2585374;54;19958;31
2023/12/06 08:47:23;;;;;;;;;;;-3.20;99.90;;;;;;2585780;54;20797;31
2023/12/06 08:49:58;;;;;;;;;;;-1.70;99.90;;;;;;2585800;54;19941;31
2023/12/06 08:52:38;;;;;;;;;;;-1.60;99.90;;;;;;2585343;54;20724;31
2023/12/06 08:55:12;;;;;;;;;;;-1.60;99.90;;;;;;2585955;54;19941;31
2023/12/06 08:57:46;;;;;;;;;;;-1.50;99.90;;;;;;2585518;54;20840;31
2023/12/06 09:00:22;;;;;;;;;;;-1.50;99.90;;;;;;2585773;54;20820;31
2023/12/06 09:02:55;;;;;;;;;;;0.70;99.90;;;;;;2600733;46;20718;31
2023/12/06 09:05:30;;;;;;;;;;;-1.30;99.90;;;;;;2585493;54;20750;31
2023/12/06 09:08:06;;;;;;;;;;;-1.30;99.90;;;;;;2585637;54;20719;31
2023/12/06 09:10:39;;;;;;;;;;;-1.20;99.90;;;;;;2586226;46;19942;31
2023/12/06 09:13:12;;;;;;;;;;;-1.10;99.90;;;;;;2604479;46;20801;31
2023/12/06 09:15:45;;;;;;;;;;;-1.20;99.90;;;;;;2603930;46;20896;31
2023/12/06 09:18:18;;;;;;;;;;;-1.10;99.90;;;;;;2604476;46;20804;31
2023/12/06 09:20:52;;;;;;;;;;;1.00;99.90;;;;;;2585658;54;20750;31
2023/12/06 09:23:28;;;;;;;;;;;-0.90;99.90;;;;;;2585640;54;20793;31
2023/12/06 09:26:01;;;;;;;;;;;-1.00;99.90;;;;;;2585605;54;19938;31
2023/12/06 09:28:35;;;;;;;;;;;-0.60;99.90;;;;;;2585844;54;20788;31
2023/12/06 09:31:07;;;;;;;;;;;-0.90;99.90;;;;;;2604406;46;21807;31
2023/12/06 09:33:43;;;;;;;;;;;-0.90;99.90;;;;;;2585672;54;20840;31
2023/12/06 09:36:16;;;;;;;;;;;1.00;99.90;;;;;;2585643;54;19954;31
2023/12/06 09:38:52;;;;;;;;;;;-0.70;99.90;;;;;;2585533;54;20856;31
2023/12/06 09:41:24;;;;;;;;;;;-0.80;99.90;;;;;;2683771;39;20982;31
2023/12/06 09:43:56;;;;;;;;;;;-0.70;99.90;;;;;;2683823;39;22209;31
2023/12/06 09:46:29;;;;;;;;;;;-0.50;99.90;;;;;;2585282;54;19957;31
2023/12/06 09:49:03;;;;;;;;;;;-2.60;99.90;;;;;;2603988;46;20790;31
2023/12/06 09:51:36;;;;;;;;;;;-0.70;99.90;;;;;;2585747;54;20721;31
2023/12/06 09:54:12;;;;;;;;;;;-0.60;99.90;;;;;;2603871;46;20054;31
2023/12/06 09:56:47;;;;;;;;;;;-0.20;99.90;;;;;;2585528;54;20005;31
2023/12/06 09:59:20;;;;;;;;;;;-0.10;99.90;;;;;;2585618;54;20396;31
2023/12/06 10:01:53;;;;;;;;;;;-0.50;99.90;;;;;;2603651;46;20020;31
2023/12/06 10:04:28;;;;;;;;;;;0.60;99.90;;;;;;2585423;54;19998;31
2023/12/06 10:07:01;;;;;;;;;;;-0.40;99.90;;;;;;2585245;54;19934;31
2023/12/06 10:09:37;;;;;;;;;;;-0.60;99.90;;;;;;2585534;54;20765;31
2023/12/06 10:12:15;;;;;;;;;;;-0.20;99.90;;;;;;2585725;54;22277;31
2023/12/06 10:14:49;;;;;;;;;;;0.10;99.90;;;;;;2585819;54;19977;31
2023/12/06 10:17:25;;;;;;;;;;;0.10;99.90;;;;;;2585530;54;20404;31
2023/12/06 10:19:59;;;;;;;;;;;0.20;99.90;;;;;;2585386;54;20462;31
2023/12/06 10:22:33;;;;;;;;;;;-0.10;99.90;;;;;;2603608;47;20839;31
2023/12/06 10:25:10;;;;;;;;;;;0.50;99.90;;;;;;2603523;47;19957;31
2023/12/06 10:27:45;;;;;;;;;;;-0.10;99.90;;;;;;2585230;54;20025;31
2023/12/06 10:30:23;;;;;;;;;;;0.20;99.90;;;;;;2603982;47;19942;31
2023/12/06 10:32:56;;;;;;;;;;;0.00;99.90;;;;;;2585200;54;19941;31
2023/12/06 10:35:29;;;;;;;;;;;0.10;99.90;;;;;;2589356;47;19935;31
2023/12/06 10:38:02;;;;;;;;;;;0.10;99.90;;;;;;2603626;47;19950;31
2023/12/06 10:40:39;;;;;;;;;;;-2.60;99.90;;;;;;2585413;54;20796;31
2023/12/06 10:43:14;;;;;;;;;;;0.10;99.90;;;;;;2603760;47;19935;31
2023/12/06 10:45:50;;;;;;;;;;;0.50;99.90;;;;;;2585276;54;20893;31
2023/12/06 10:48:24;;;;;;;;;;;0.70;99.90;;;;;;2603853;47;20707;31
2023/12/06 10:50:59;;;;;;;;;;;0.20;99.90;;;;;;2585520;54;20479;31
2023/12/06 10:53:33;;;;;;;;;;;-2.70;99.90;;;;;;2585327;54;20750;31
2023/12/06 10:56:10;;;;;;;;;;;0.30;99.90;;;;;;2604507;47;19935;31
2023/12/06 10:58:44;;;;;;;;;;;0.50;99.90;;;;;;2604693;46;19934;31
2023/12/06 11:01:17;;;;;;;;;;;0.40;99.90;;;;;;2604388;46;19956;31
2023/12/06 11:03:50;;;;;;;;;;;2.50;99.90;;;;;;2586369;54;20816;31
2023/12/06 11:06:25;;;;;;;;;;;3.70;99.90;;;;;;2586081;54;20823;31
2023/12/06 11:09:04;;;;;;;;;;;3.70;99.90;;;;;;2585791;54;20927;31
2023/12/06 11:11:44;;;;;;;;;;;3.80;99.90;;;;;;2604726;46;19935;31
2023/12/06 11:14:20;;;;;;;;;;;1.50;99.90;;;;;;2586073;54;19935;31
2023/12/06 11:16:56;;;;;;;;;;;0.60;99.90;;;;;;2604648;46;19934;31
2023/12/06 11:19:30;;;;;;;;;;;-1.80;99.90;;;;;;2586012;54;20792;31
2023/12/06 11:22:03;;;;;;;;;;;1.00;99.90;;;;;;2684134;39;22161;31
2023/12/06 11:24:37;;;;;;;;;;;1.20;99.90;;;;;;2585923;54;20816;31
2023/12/06 11:27:13;;;;;;;;;;;0.80;99.90;;;;;;2604062;46;19957;31
2023/12/06 11:29:46;;;;;;;;;;;0.60;99.90;;;;;;2604949;46;22291;31
2023/12/06 11:32:21;;;;;;;;;;;0.80;99.90;;;;;;2585806;54;20714;31
2023/12/06 11:34:58;;;;;;;;;;;0.80;99.90;;;;;;2604729;46;22279;31
2023/12/06 11:37:34;;;;;;;;;;;1.20;99.90;;;;;;2586294;54;21101;31
2023/12/06 11:40:25;;;;;;;;;;;0.70;99.90;;;;;;2585911;54;19938;31
2023/12/06 11:43:01;;;;;;;;;;;1.20;99.90;;;;;;2586155;54;20796;31
2023/12/06 11:45:34;;;;;;;;;;;0.70;99.90;;;;;;2604788;46;21085;31
2023/12/06 11:48:08;;;;;;;;;;;0.80;99.90;;;;;;2584950;54;20088;31
2023/12/06 11:50:44;;;;;;;;;;;0.80;99.90;;;;;;2585909;54;20841;31
2023/12/06 11:53:19;;;;;;;;;;;0.70;99.90;;;;;;2604273;46;19935;31
2023/12/06 11:55:52;;;;;;;;;;;1.10;99.90;;;;;;2585933;54;19997;31
2023/12/06 11:58:31;;;;;;;;;;;1.00;99.90;;;;;;2604552;46;20805;31
2023/12/06 12:01:03;;;;;;;;;;;0.80;99.90;;;;;;2585682;54;19934;31
2023/12/06 12:03:38;;;;;;;;;;;1.00;99.90;;;;;;2604397;46;20765;31
2023/12/06 12:06:11;;;;;;;;;;;0.90;99.90;;;;;;2604501;46;19934;31
2023/12/06 12:08:47;;;;;;;;;;;1.10;99.90;;;;;;2585819;54;19938;31
2023/12/06 12:11:20;;;;;;;;;;;0.80;99.90;;;;;;2586104;54;20727;31
2023/12/06 12:13:58;;;;;;;;;;;0.90;99.90;;;;;;2585853;54;20716;31
2023/12/06 12:16:31;;;;;;;;;;;0.90;99.90;;;;;;2604116;46;19951;31
2023/12/06 12:19:06;;;;;;;;;;;-1.70;99.90;;;;;;2586150;54;19989;31
2023/12/06 12:21:39;;;;;;;;;;;1.00;99.90;;;;;;2585562;54;20778;31
2023/12/06 12:24:18;;;;;;;;;;;1.00;99.90;;;;;;2585908;54;20799;31
2023/12/06 12:26:52;;;;;;;;;;;0.90;99.90;;;;;;2604397;46;20826;31
2023/12/06 12:29:24;;;;;;;;;;;4.20;99.90;;;;;;2586056;54;20770;31
2023/12/06 12:31:59;;;;;;;;;;;3.30;99.90;;;;;;2585958;54;19935;31
2023/12/06 12:34:32;;;;;;;;;;;1.30;99.90;;;;;;2585802;54;19957;31
2023/12/06 12:37:05;;;;;;;;;;;4.30;99.90;;;;;;2604148;46;20864;31
2023/12/06 12:39:38;;;;;;;;;;;4.20;99.90;;;;;;2585509;54;19942;31
2023/12/06 12:42:12;;;;;;;;;;;1.40;99.90;;;;;;2585796;54;19954;31
2023/12/06 12:44:45;;;;;;;;;;;1.20;99.90;;;;;;2585699;54;19934;31
2023/12/06 12:47:20;;;;;;;;;;;4.40;99.90;;;;;;2603964;46;19934;31
2023/12/06 12:49:54;;;;;;;;;;;1.30;99.90;;;;;;2585952;54;19964;31
2023/12/06 12:52:27;;;;;;;;;;;1.20;99.90;;;;;;2604211;46;20841;31
2023/12/06 12:55:00;;;;;;;;;;;4.10;99.90;;;;;;2585893;54;20810;31
2023/12/06 12:57:37;;;;;;;;;;;1.00;99.90;;;;;;2585657;54;19939;31
2023/12/06 13:00:20;;;;;;;;;;;1.40;99.90;;;;;;2585480;54;20831;31
2023/12/06 13:02:57;;;;;;;;;;;4.30;99.90;;;;;;2585693;54;19940;31
2023/12/06 13:05:29;;;;;;;;;;;1.10;99.90;;;;;;2604349;46;20691;31
2023/12/06 13:08:01;;;;;;;;;;;1.10;99.90;;;;;;2683824;39;20961;31
2023/12/06 13:10:34;;;;;;;;;;;1.20;99.90;;;;;;2603895;46;20789;31
2023/12/06 13:13:07;;;;;;;;;;;1.20;99.90;;;;;;2585447;54;19958;31
2023/12/06 13:15:42;;;;;;;;;;;1.50;99.90;;;;;;2585287;54;19938;31
2023/12/06 13:18:18;;;;;;;;;;;1.40;99.90;;;;;;2603559;46;19934;31
2023/12/06 13:20:55;;;;;;;;;;;1.40;99.90;;;;;;2585536;54;19961;31
2023/12/06 13:23:30;;;;;;;;;;;1.40;99.90;;;;;;2585225;54;19934;31
2023/12/06 13:26:03;;;;;;;;;;;1.00;99.90;;;;;;2585781;54;20791;31
2023/12/06 13:28:36;;;;;;;;;;;1.20;99.90;;;;;;2604197;46;20863;31
2023/12/06 13:31:09;;;;;;;;;;;1.10;99.90;;;;;;2604429;46;21050;31
2023/12/06 13:33:42;;;;;;;;;;;1.20;99.90;;;;;;2585669;54;20720;31
2023/12/06 13:36:18;;;;;;;;;;;1.20;99.90;;;;;;2585321;54;20894;31
2023/12/06 13:38:50;;;;;;;;;;;1.10;99.90;;;;;;2586001;54;22310;31
2023/12/06 13:41:23;;;;;;;;;;;1.10;99.90;;;;;;2585378;54;19962;31
2023/12/06 13:43:56;;;;;;;;;;;-1.50;99.90;;;;;;2585761;54;19934;31
2023/12/06 13:46:32;;;;;;;;;;;1.40;99.90;;;;;;2585313;54;19941;31
2023/12/06 13:49:06;;;;;;;;;;;1.20;99.90;;;;;;2585141;54;19997;31
2023/12/06 13:51:43;;;;;;;;;;;4.30;99.90;;;;;;2604344;46;20814;31
2023/12/06 13:54:16;;;;;;;;;;;1.20;99.90;;;;;;2585462;54;19942;31
2023/12/06 13:56:50;;;;;;;;;;;1.10;99.90;;;;;;2683668;39;21001;31
2023/12/06 13:59:27;;;;;;;;;;;1.10;99.90;;;;;;2585267;54;19935;31
2023/12/06 14:02:00;;;;;;;;;;;1.20;99.90;;;;;;2585357;54;19934;31
2023/12/06 14:04:34;;;;;;;;;;;4.10;99.90;;;;;;2585438;54;20002;31
2023/12/06 14:07:17;;;;;;;;;;;1.20;99.90;;;;;;2585375;54;20710;31
2023/12/06 14:09:53;;;;;;;;;;;1.10;99.90;;;;;;2585186;54;19950;31
2023/12/06 14:12:26;;;;;;;;;;;2.90;99.90;;;;;;2603962;46;19957;31
2023/12/06 14:15:02;;;;;;;;;;;1.40;99.90;;;;;;2604002;46;20812;31
2023/12/06 14:17:35;;;;;;;;;;;1.00;99.90;;;;;;2585649;54;19934;31
2023/12/06 14:20:10;;;;;;;;;;;1.30;99.90;;;;;;2585619;54;20731;31
2023/12/06 14:22:43;;;;;;;;;;;1.00;99.90;;;;;;2585322;54;20857;31
2023/12/06 14:25:22;;;;;;;;;;;3.40;99.90;;;;;;2604123;47;20834;31
2023/12/06 14:27:56;;;;;;;;;;;1.10;99.90;;;;;;2585371;54;20854;31
2023/12/06 14:30:31;;;;;;;;;;;4.10;99.90;;;;;;2585573;54;20800;31
2023/12/06 14:33:05;;;;;;;;;;;4.20;99.90;;;;;;2586248;54;20020;31
2023/12/06 14:35:38;;;;;;;;;;;1.40;99.90;;;;;;2586318;54;20793;31
2023/12/06 14:38:11;;;;;;;;;;;0.90;99.90;;;;;;2586235;54;19961;31
2023/12/06 14:40:45;;;;;;;;;;;1.30;99.90;;;;;;2586085;54;20799;31
2023/12/06 14:43:22;;;;;;;;;;;1.00;99.90;;;;;;2586272;54;19941;31
2023/12/06 14:45:57;;;;;;;;;;;1.00;99.90;;;;;;2586226;54;20887;31
2023/12/06 14:48:30;;;;;;;;;;;1.00;99.90;;;;;;2586232;54;19934;31
2023/12/06 14:51:07;;;;;;;;;;;2.60;99.90;;;;;;2586425;54;19934;31
2023/12/06 14:53:39;;;;;;;;;;;1.00;99.90;;;;;;2684067;39;20970;31
2023/12/06 14:56:15;;;;;;;;;;;1.00;99.90;;;;;;2604732;46;20764;31
2023/12/06 14:58:50;;;;;;;;;;;1.00;99.90;;;;;;2586053;54;20714;31
2023/12/06 15:01:32;;;;;;;;;;;1.00;99.90;;;;;;2586049;54;19934;31
2023/12/06 15:04:05;;;;;;;;;;;-1.90;99.90;;;;;;2585895;54;20902;31
2023/12/06 15:06:39;;;;;;;;;;;4.20;99.90;;;;;;2586149;54;19935;31
2023/12/06 15:09:13;;;;;;;;;;;1.00;99.90;;;;;;2586225;54;19934;31
2023/12/06 15:11:49;;;;;;;;;;;1.00;99.90;;;;;;2586088;54;20927;31
2023/12/06 15:14:22;;;;;;;;;;;0.80;99.90;;;;;;2586232;54;19941;31